Flight Track Log - Related Links

Times and Time Zones

All times are in EST time to prevent confusion due to time zone crossing. See the N496DA flight status page for this flight to view local times or setup timezone preferences in your user account.

Time Position Orientation Groundspeed Altitude Reporting Facility
EST Latitude Longitude Course Direction KTS MPH feet Rate Location/Type
Sat 02:25:00 PM 26.3378 -81.7833 North  Level FlightAware Approximate
Sat 02:26:00 PM 26.3693 -81.7837 353° North  Level FlightAware Approximate
Sat 02:27:00 PM 26.4005 -81.7879 353° North  Level FlightAware Approximate
Sat 02:28:00 PM 26.4317 -81.7922 353° North  Level FlightAware Approximate
Sat 02:29:00 PM 26.4629 -81.7964 353° North  Level FlightAware Approximate
Sat 02:30:00 PM 26.4942 -81.8007 353° North  Level FlightAware Approximate
Sat 02:31:00 PM 26.5254 -81.8049 353° North  Level FlightAware Approximate
Sat 02:32:00 PM 26.5566 -81.8092 353° North  Level FlightAware Approximate
Sat 02:33:00 PM 26.5878 -81.8135 353° North  Level FlightAware Approximate
Sat 02:34:00 PM 26.6190 -81.8177 353° North  Level FlightAware Approximate
Sat 02:35:00 PM 26.6502 -81.8220 353° North  Level FlightAware Approximate
Sat 02:36:00 PM 26.6814 -81.8262 353° North  Level FlightAware Approximate
Sat 02:37:00 PM 26.7126 -81.8305 353° North  Level FlightAware Approximate
Sat 02:38:00 PM 26.7439 -81.8343 355° North  Level FlightAware Approximate
Sat 02:39:00 PM 26.7752 -81.8371 355° North  Level FlightAware Approximate
Sat 02:40:00 PM 26.8066 -81.8400 355° North  Level FlightAware Approximate
Sat 02:40:39 PM 26.8178 -81.7256 355° North 121 139 6,000  Level Miami Center
Sat 02:41:00 PM 26.8379 -81.8428 355° North  Level FlightAware Approximate
Sat 02:41:39 PM 26.8508 -81.7342 347° North 126 145 6,000  Level Miami Center
Sat 02:42:00 PM 26.8692 -81.8457 355° North  Level FlightAware Approximate
Sat 02:42:39 PM 26.8861 -81.7447 345° North 126 145 6,000  Level Miami Center
Sat 02:43:00 PM 26.9006 -81.8485 355° North  Level FlightAware Approximate
Sat 02:43:39 PM 26.9233 -81.7533 348° North 121 139 6,000  Level Miami Center
Sat 02:44:00 PM 26.9319 -81.8514 355° North  Level FlightAware Approximate
Sat 02:44:39 PM 26.9564 -81.7594 351° North 121 139 6,000  Level Miami Center
Sat 02:45:39 PM 26.9875 -81.7678 347° North 121 139 6,000  Level Miami Center
Sat 02:46:39 PM 27.0228 -81.7739 351° North 121 139 6,000  Level Miami Center
Sat 02:47:39 PM 27.0539 -81.7844 343° North 121 139 6,000  Level Miami Center
Sat 02:48:39 PM 27.0867 -81.8000 337° Northwest 126 145 6,000  Level Miami Center
Sat 02:49:39 PM 27.1178 -81.8036 354° North 121 139 6,000  Level Miami Center
Sat 02:50:39 PM 27.1489 -81.8094 351° North 121 139 6,000  Level Miami Center
Sat 02:51:39 PM 27.1800 -81.8156 350° North 116 133 6,000  Level Miami Center
Sat 02:52:39 PM 27.2111 -81.8217 350° North 116 133 6,000  Level Miami Center
Sat 02:53:39 PM 27.2444 -81.8275 351° North 116 133 6,000  Level Miami Center
Sat 02:54:39 PM 27.2756 -81.8336 350° North 116 133 6,000  Level Miami Center
Sat 02:55:39 PM 27.3044 -81.8419 346° North 116 133 6,000  Level Miami Center
Sat 02:56:39 PM 27.3356 -81.8478 351° North 116 133 6,000  Level Miami Center
Sat 02:57:39 PM 27.3644 -81.8539 349° North 110 127 6,000  Level Miami Center
Sat 02:58:39 PM 27.3956 -81.8600 350° North 105 121 6,000  Level Miami Center
Sat 02:59:39 PM 27.4267 -81.8658 351° North 105 121 6,000  Level Miami Center
Sat 03:00:39 PM 27.4578 -81.8719 350° North 105 121 6,000  Level Miami Center
Sat 03:01:39 PM 27.4889 -81.8803 347° North 105 121 6,000  Level Miami Center
Sat 03:02:39 PM 27.5178 -81.8886 346° North 105 121 6,000  Level Miami Center
Sat 03:03:39 PM 27.5444 -81.8969 345° North 105 121 6,000  Level Miami Center
Sat 03:04:39 PM 27.5797 -81.9078 345° North 105 121 6,000  Level Miami Center
Sat 03:05:39 PM 27.6064 -81.9158 345° North 105 121 6,000  Level Miami Center
Sat 03:06:39 PM 27.6375 -81.9242 347° North 105 121 6,000  Level Miami Center
Sat 03:07:39 PM 27.6725 -81.9353 344° North 105 121 6,000  Level Miami Center
Sat 03:08:39 PM 27.7036 -81.9436 347° North 105 121 6,000  Level Miami Center
Sat 03:09:39 PM 27.7347 -81.9519 347° North 110 127 6,000  Level Miami Center
Sat 03:10:39 PM 27.7636 -81.9603 346° North 110 127 6,000  Level Miami Center
Sat 03:11:39 PM 27.7947 -81.9664 350° North 110 127 6,000  Level Miami Center
Sat 03:13:16 PM 27.8500 -81.9833 345° North 111 128 6,000  Level Tampa TRACON
Sat 03:14:16 PM 27.8833 -81.9833 360° North 111 128 6,000  Level Tampa TRACON
Sat 03:15:16 PM 27.9000 -82.0000 319° Northwest 110 127 6,000  Level Tampa TRACON
Sat 03:16:16 PM 27.9333 -82.0000 360° North 111 128 6,000  Level Tampa TRACON
Sat 03:17:22 PM 27.9667 -82.0167 336° Northwest 112 129 6,000  Level Tampa TRACON
Sat 03:18:16 PM 28.0000 -82.0167 360° North 115 132 6,000  Level Tampa TRACON
Sat 03:19:16 PM 28.0333 -82.0167 360° North 116 133 6,000  Level Tampa TRACON
Sat 03:20:16 PM 28.0667 -82.0333 336° Northwest 114 131 6,000  Level Tampa TRACON
Sat 03:21:16 PM 28.1000 -82.0333 360° North 111 128 6,000  Level Tampa TRACON
Sat 03:22:16 PM 28.1167 -82.0333 360° North 109 125 6,000  Level Tampa TRACON
Sat 03:23:17 PM 28.1500 -82.0333 360° North 113 130 6,000  Level Tampa TRACON
Sat 03:24:17 PM 28.1833 -82.0500 336° Northwest 113 130 6,000  Level Tampa TRACON
Sat 03:25:17 PM 28.2167 -82.0500 360° North 110 127 6,000  Level Tampa TRACON
Sat 03:26:17 PM 28.2500 -82.0500 360° North 109 125 6,000  Level Tampa TRACON
Sat 03:27:17 PM 28.2833 -82.0667 336° Northwest 110 127 6,000  Level Tampa TRACON
Sat 03:28:17 PM 28.3000 -82.0667 360° North 112 129 6,000  Level Tampa TRACON
Sat 03:29:17 PM 28.3333 -82.0667 360° North 112 129 6,000  Level Tampa TRACON
Sat 03:30:17 PM 28.3667 -82.0667 360° North 113 130 6,000  Level Tampa TRACON
Sat 03:31:17 PM 28.4000 -82.0833 336° Northwest 111 128 6,000  Level Tampa TRACON
Sat 03:32:17 PM 28.4333 -82.0833 360° North 113 130 6,000  Level Tampa TRACON
Sat 03:33:17 PM 28.4667 -82.0833 360° North 112 129 6,000 42 Level Tampa TRACON
Sat 03:34:39 PM 28.5042 -82.0917 349° North 111 128 6,100  Climbing Jacksonville Center
Sat 03:35:40 PM 28.5356 -82.0986 349° North 110 127 6,000 -47 Descending Jacksonville Center
Sat 03:36:47 PM 28.5689 -82.1006 357° North 110 127 6,000  Level Jacksonville Center
Sat 03:37:42 PM 28.5961 -82.1075 347° North 110 127 6,000  Level Jacksonville Center
Sat 03:38:43 PM 28.6275 -82.1097 356° North 107 123 6,000 49 Level Jacksonville Center
Sat 03:39:44 PM 28.6589 -82.1164 349° North 111 128 6,100 49 Climbing Jacksonville Center
Sat 03:40:46 PM 28.6881 -82.1186 356° North 107 123 6,100  Level Jacksonville Center
Sat 03:41:53 PM 28.7217 -82.1278 347° North 107 123 6,100  Level Jacksonville Center
Sat 03:42:54 PM 28.7528 -82.1300 356° North 109 125 6,100  Level Jacksonville Center
Sat 03:43:49 PM 28.7822 -82.1369 348° North 111 128 6,100  Level Jacksonville Center
Sat 03:44:56 PM 28.8133 -82.1414 353° North 110 127 6,100  Level Jacksonville Center
Sat 03:45:51 PM 28.8428 -82.1436 356° North 109 125 6,100  Level Jacksonville Center
Sat 03:46:51 PM 28.8739 -82.1481 353° North 113 130 6,100  Level Jacksonville Center
Sat 03:47:53 PM 28.9053 -82.1503 356° North 113 130 6,100  Level Jacksonville Center
Sat 03:48:48 PM 28.9325 -82.1594 344° North 109 125 6,100  Level Jacksonville Center
Sat 03:50:01 PM 28.9722 -82.1639 354° North 111 128 6,100 -47 Level Jacksonville Center
Sat 03:50:56 PM 29.0014 -82.1661 356° North 113 130 6,000  Descending Jacksonville Center
Sat 03:51:51 PM 29.0286 -82.1683 356° North 112 129 6,100 49 Climbing Jacksonville Center
Sat 03:52:58 PM 29.0642 -82.1608 10° North 121 139 6,100  Level Jacksonville Center
Sat 03:53:59 PM 29.0994 -82.1558 North 119 137 6,100  Level Jacksonville Center
Sat 03:55:00 PM 29.1308 -82.1508 North 118 136 6,100 -197 Level Jacksonville Center
Sat 03:56:01 PM 29.1661 -82.1458 North 121 139 5,700 -393 Descending Jacksonville Center
Sat 03:57:02 PM 29.1997 -82.1408 North 119 137 5,300 -443 Descending Jacksonville Center
Sat 03:58:03 PM 29.2331 -82.1383 North 118 136 4,800 -469 Descending Jacksonville Center
Sat 03:59:10 PM 29.2664 -82.1308 11° North 112 129 4,300 -375 Descending Jacksonville Center
Sat 04:00:11 PM 29.2978 -82.1306 360° North 113 130 4,000 -443 Descending Jacksonville Center
Sat 04:01:12 PM 29.3311 -82.1281 North 120 138 3,400 -443 Descending Jacksonville Center
Sat 04:02:13 PM 29.3664 -82.1278 360° North 122 140 3,100 -197 Descending Jacksonville Center
Sat 04:03:14 PM 29.4019 -82.1297 357° North 118 136 3,000  Descending Jacksonville Center
Sat 04:04:03 PM 29.4250 -82.1225 15° North 114 131 3,100  Climbing Jacksonville Center
Sat 04:05:04 PM 29.4561 -82.1128 15° North 116 133 3,000  Descending Jacksonville Center
Sat 04:06:05 PM 29.4875 -82.1028 15° North 117 135 3,100 52 Climbing Jacksonville Center
Sat 04:07:00 PM 29.5208 -82.0978 North 121 139 3,100  Level Jacksonville Center
Sat 04:08:07 PM 29.5583 -82.0856 16° North 119 137 3,100 -141 Level Jacksonville Center
Sat 04:09:08 PM 29.5894 -82.0781 12° North 120 138 2,800 -344 Descending Jacksonville Center
Sat 04:10:09 PM 29.6231 -82.0683 14° North 125 144 2,400 -446 Descending Jacksonville Center
Sat 04:11:09 PM 29.6481 -82.0872 327° Northwest 119 137 1,900 -365 Descending Jacksonville Center
Sat 04:12:04 PM 29.6567 -82.1183 288° West 116 133 1,700 -94 Descending Jacksonville Center
Sat 04:13:17 PM 29.6631 -82.1539 282° West 81 93 1,700 -94 Level Jacksonville Center
Sat 04:14:12 PM 29.6675 -82.1778 282° West 83 96 1,500 -362 Descending Jacksonville Center
Sat 04:15:13 PM 29.6717 -82.2017 281° West 78 90 1,000 -443 Descending Jacksonville Center
Sat 04:16:14 PM 29.6781 -82.2281 286° West 84 97 600 -197 Descending Jacksonville Center
Sat 04:17:15 PM 29.6822 -82.2375 297° West 85 98 600  Level Jacksonville Center
Sat 04:19:11 PM 29.6822 -82.2375 360° North 85 98 600  Level Jacksonville Center

Login

Don't have an account? Register now (free) for customized features, flight alerts, and more!